sensor_id;sensor_type;location;lat;lon;timestamp;temperature;humidity
46231;DHT22;31949;51.404;-0.038;2022-11-20T00:01:17;7.00;99.90
46231;DHT22;31949;51.404;-0.038;2022-11-20T00:03:45;7.00;99.90
46231;DHT22;31949;51.404;-0.038;2022-11-20T00:06:15;7.00;99.90
46231;DHT22;31949;51.404;-0.038;2022-11-20T00:08:42;7.00;99.90
46231;DHT22;31949;51.404;-0.038;2022-11-20T00:11:18;6.90;99.90
46231;DHT22;31949;51.404;-0.038;2022-11-20T00:13:47;7.00;99.90
46231;DHT22;31949;51.404;-0.038;2022-11-20T00:16:17;7.00;99.90
46231;DHT22;31949;51.404;-0.038;2022-11-20T00:18:44;6.90;99.90
46231;DHT22;31949;51.404;-0.038;2022-11-20T00:21:21;7.00;99.90
46231;DHT22;31949;51.404;-0.038;2022-11-20T00:23:50;6.90;99.90
46231;DHT22;31949;51.404;-0.038;2022-11-20T00:26:20;7.00;99.90
46231;DHT22;31949;51.404;-0.038;2022-11-20T00:28:54;7.00;99.90
46231;DHT22;31949;51.404;-0.038;2022-11-20T00:31:22;7.00;99.90
46231;DHT22;31949;51.404;-0.038;2022-11-20T00:33:49;6.90;99.90
46231;DHT22;31949;51.404;-0.038;2022-11-20T00:36:19;7.00;99.90
46231;DHT22;31949;51.404;-0.038;2022-11-20T00:38:47;7.00;99.90
46231;DHT22;31949;51.404;-0.038;2022-11-20T00:41:17;7.00;99.90
46231;DHT22;31949;51.404;-0.038;2022-11-20T00:43:45;7.00;99.90
46231;DHT22;31949;51.404;-0.038;2022-11-20T00:46:14;7.00;99.90
46231;DHT22;31949;51.404;-0.038;2022-11-20T00:48:42;7.00;99.90
46231;DHT22;31949;51.404;-0.038;2022-11-20T00:51:12;7.00;99.90
46231;DHT22;31949;51.404;-0.038;2022-11-20T00:53:40;7.00;99.90
46231;DHT22;31949;51.404;-0.038;2022-11-20T00:56:11;7.00;99.90
46231;DHT22;31949;51.404;-0.038;2022-11-20T00:58:40;7.00;99.90
46231;DHT22;31949;51.404;-0.038;2022-11-20T01:01:17;7.10;99.90
46231;DHT22;31949;51.404;-0.038;2022-11-20T01:03:47;7.00;99.90
46231;DHT22;31949;51.404;-0.038;2022-11-20T01:06:23;7.10;99.90
46231;DHT22;31949;51.404;-0.038;2022-11-20T01:08:52;7.10;99.90
46231;DHT22;31949;51.404;-0.038;2022-11-20T01:11:22;7.10;99.90
46231;DHT22;31949;51.404;-0.038;2022-11-20T01:13:50;7.10;99.90
46231;DHT22;31949;51.404;-0.038;2022-11-20T01:16:26;7.00;99.90
46231;DHT22;31949;51.404;-0.038;2022-11-20T01:18:57;7.10;99.90
46231;DHT22;31949;51.404;-0.038;2022-11-20T01:21:30;7.10;99.90
46231;DHT22;31949;51.404;-0.038;2022-11-20T01:23:58;7.10;99.90
46231;DHT22;31949;51.404;-0.038;2022-11-20T01:26:31;7.10;99.90
46231;DHT22;31949;51.404;-0.038;2022-11-20T01:28:59;7.10;99.90
46231;DHT22;31949;51.404;-0.038;2022-11-20T01:31:34;7.10;99.90
46231;DHT22;31949;51.404;-0.038;2022-11-20T01:34:07;7.10;99.90
46231;DHT22;31949;51.404;-0.038;2022-11-20T01:36:36;7.10;99.90
46231;DHT22;31949;51.404;-0.038;2022-11-20T01:39:07;7.10;99.90
46231;DHT22;31949;51.404;-0.038;2022-11-20T01:41:34;7.10;99.90
46231;DHT22;31949;51.404;-0.038;2022-11-20T01:44:41;7.10;99.90
46231;DHT22;31949;51.404;-0.038;2022-11-20T01:47:12;7.10;99.90
46231;DHT22;31949;51.404;-0.038;2022-11-20T01:49:46;7.20;99.90
46231;DHT22;31949;51.404;-0.038;2022-11-20T01:52:33;7.20;99.90
46231;DHT22;31949;51.404;-0.038;2022-11-20T01:55:09;7.20;99.90
46231;DHT22;31949;51.404;-0.038;2022-11-20T01:57:38;7.20;99.90
46231;DHT22;31949;51.404;-0.038;2022-11-20T02:00:11;7.20;99.90
46231;DHT22;31949;51.404;-0.038;2022-11-20T02:02:42;7.20;99.90
46231;DHT22;31949;51.404;-0.038;2022-11-20T02:05:27;7.20;99.90
46231;DHT22;31949;51.404;-0.038;2022-11-20T02:07:57;7.20;99.90
46231;DHT22;31949;51.404;-0.038;2022-11-20T02:10:25;7.20;99.90
46231;DHT22;31949;51.404;-0.038;2022-11-20T02:12:54;7.20;99.90
46231;DHT22;31949;51.404;-0.038;2022-11-20T02:15:40;7.30;99.90
46231;DHT22;31949;51.404;-0.038;2022-11-20T02:18:09;7.30;99.90
46231;DHT22;31949;51.404;-0.038;2022-11-20T02:20:36;7.30;99.90
46231;DHT22;31949;51.404;-0.038;2022-11-20T02:23:22;7.30;99.90
46231;DHT22;31949;51.404;-0.038;2022-11-20T02:25:54;7.30;99.90
46231;DHT22;31949;51.404;-0.038;2022-11-20T02:28:23;7.30;99.90
46231;DHT22;31949;51.404;-0.038;2022-11-20T02:30:50;7.30;99.90
46231;DHT22;31949;51.404;-0.038;2022-11-20T02:33:17;7.30;99.90
46231;DHT22;31949;51.404;-0.038;2022-11-20T02:35:46;7.40;99.90
46231;DHT22;31949;51.404;-0.038;2022-11-20T02:38:14;7.40;99.90
46231;DHT22;31949;51.404;-0.038;2022-11-20T02:40:42;7.40;99.90
46231;DHT22;31949;51.404;-0.038;2022-11-20T02:43:09;7.40;99.90
46231;DHT22;31949;51.404;-0.038;2022-11-20T02:45:37;7.40;99.90
46231;DHT22;31949;51.404;-0.038;2022-11-20T02:48:06;7.40;99.90
46231;DHT22;31949;51.404;-0.038;2022-11-20T02:50:37;7.50;99.90
46231;DHT22;31949;51.404;-0.038;2022-11-20T02:53:05;7.50;99.90
46231;DHT22;31949;51.404;-0.038;2022-11-20T02:55:32;7.50;99.90
46231;DHT22;31949;51.404;-0.038;2022-11-20T02:57:59;7.50;99.90
46231;DHT22;31949;51.404;-0.038;2022-11-20T03:00:27;7.60;99.90
46231;DHT22;31949;51.404;-0.038;2022-11-20T03:02:54;7.60;99.90
46231;DHT22;31949;51.404;-0.038;2022-11-20T03:05:21;7.60;99.90
46231;DHT22;31949;51.404;-0.038;2022-11-20T03:07:48;7.60;99.90
46231;DHT22;31949;51.404;-0.038;2022-11-20T03:10:15;7.60;99.90
46231;DHT22;31949;51.404;-0.038;2022-11-20T03:12:42;7.60;99.90
46231;DHT22;31949;51.404;-0.038;2022-11-20T03:15:10;7.60;99.90
46231;DHT22;31949;51.404;-0.038;2022-11-20T03:17:37;7.60;99.90
46231;DHT22;31949;51.404;-0.038;2022-11-20T03:20:05;7.60;99.90
46231;DHT22;31949;51.404;-0.038;2022-11-20T03:22:32;7.70;99.90
46231;DHT22;31949;51.404;-0.038;2022-11-20T03:24:59;7.70;99.90
46231;DHT22;31949;51.404;-0.038;2022-11-20T03:27:27;7.70;99.90
46231;DHT22;31949;51.404;-0.038;2022-11-20T03:29:54;7.70;99.90
46231;DHT22;31949;51.404;-0.038;2022-11-20T03:32:21;7.80;99.90
46231;DHT22;31949;51.404;-0.038;2022-11-20T03:34:48;7.80;99.90
46231;DHT22;31949;51.404;-0.038;2022-11-20T03:37:15;7.80;99.90
46231;DHT22;31949;51.404;-0.038;2022-11-20T03:39:42;7.80;99.90
46231;DHT22;31949;51.404;-0.038;2022-11-20T03:42:09;7.80;99.90
46231;DHT22;31949;51.404;-0.038;2022-11-20T03:44:56;7.90;99.90
46231;DHT22;31949;51.404;-0.038;2022-11-20T03:47:23;7.80;99.90
46231;DHT22;31949;51.404;-0.038;2022-11-20T03:49:50;7.90;99.90
46231;DHT22;31949;51.404;-0.038;2022-11-20T03:52:18;7.90;99.90
46231;DHT22;31949;51.404;-0.038;2022-11-20T03:54:45;7.90;99.90
46231;DHT22;31949;51.404;-0.038;2022-11-20T03:57:12;7.80;99.90
46231;DHT22;31949;51.404;-0.038;2022-11-20T03:59:39;7.90;99.90
46231;DHT22;31949;51.404;-0.038;2022-11-20T04:02:06;7.90;99.90
46231;DHT22;31949;51.404;-0.038;2022-11-20T04:04:33;7.90;99.90
46231;DHT22;31949;51.404;-0.038;2022-11-20T04:07:00;7.90;99.90
46231;DHT22;31949;51.404;-0.038;2022-11-20T04:09:28;7.90;99.90
46231;DHT22;31949;51.404;-0.038;2022-11-20T04:11:55;7.90;99.90
46231;DHT22;31949;51.404;-0.038;2022-11-20T04:14:22;7.90;99.90
46231;DHT22;31949;51.404;-0.038;2022-11-20T04:16:49;7.90;99.90
46231;DHT22;31949;51.404;-0.038;2022-11-20T04:19:16;7.90;99.90
46231;DHT22;31949;51.404;-0.038;2022-11-20T04:21:44;8.00;99.90
46231;DHT22;31949;51.404;-0.038;2022-11-20T04:24:11;8.00;99.90
46231;DHT22;31949;51.404;-0.038;2022-11-20T04:26:39;8.00;99.90
46231;DHT22;31949;51.404;-0.038;2022-11-20T04:29:06;8.00;99.90
46231;DHT22;31949;51.404;-0.038;2022-11-20T04:31:34;8.00;99.90
46231;DHT22;31949;51.404;-0.038;2022-11-20T04:34:06;8.00;99.90
46231;DHT22;31949;51.404;-0.038;2022-11-20T04:36:34;8.00;99.90
46231;DHT22;31949;51.404;-0.038;2022-11-20T04:39:04;8.00;99.90
46231;DHT22;31949;51.404;-0.038;2022-11-20T04:41:34;8.00;99.90
46231;DHT22;31949;51.404;-0.038;2022-11-20T04:44:04;8.10;99.90
46231;DHT22;31949;51.404;-0.038;2022-11-20T04:46:34;8.00;99.90
46231;DHT22;31949;51.404;-0.038;2022-11-20T04:49:07;8.00;99.90
46231;DHT22;31949;51.404;-0.038;2022-11-20T04:51:39;8.00;99.90
46231;DHT22;31949;51.404;-0.038;2022-11-20T04:54:07;8.00;99.90
46231;DHT22;31949;51.404;-0.038;2022-11-20T04:56:35;8.00;99.90
46231;DHT22;31949;51.404;-0.038;2022-11-20T04:59:02;8.00;99.90
46231;DHT22;31949;51.404;-0.038;2022-11-20T05:01:30;8.00;99.90
46231;DHT22;31949;51.404;-0.038;2022-11-20T05:03:57;8.10;99.90
46231;DHT22;31949;51.404;-0.038;2022-11-20T05:06:24;8.10;99.90
46231;DHT22;31949;51.404;-0.038;2022-11-20T05:08:51;8.10;99.90
46231;DHT22;31949;51.404;-0.038;2022-11-20T05:11:20;8.10;99.90
46231;DHT22;31949;51.404;-0.038;2022-11-20T05:13:49;8.10;99.90
46231;DHT22;31949;51.404;-0.038;2022-11-20T05:16:19;8.10;99.90
46231;DHT22;31949;51.404;-0.038;2022-11-20T05:18:47;8.10;99.90
46231;DHT22;31949;51.404;-0.038;2022-11-20T05:21:14;8.10;99.90
46231;DHT22;31949;51.404;-0.038;2022-11-20T05:23:42;8.10;99.90
46231;DHT22;31949;51.404;-0.038;2022-11-20T05:26:21;8.10;99.90
46231;DHT22;31949;51.404;-0.038;2022-11-20T05:28:49;8.10;99.90
46231;DHT22;31949;51.404;-0.038;2022-11-20T05:31:22;8.10;99.90
46231;DHT22;31949;51.404;-0.038;2022-11-20T05:33:55;8.10;99.90
46231;DHT22;31949;51.404;-0.038;2022-11-20T05:36:22;8.10;99.90
46231;DHT22;31949;51.404;-0.038;2022-11-20T05:38:50;8.10;99.90
46231;DHT22;31949;51.404;-0.038;2022-11-20T05:41:20;8.10;99.90
46231;DHT22;31949;51.404;-0.038;2022-11-20T05:43:49;8.10;99.90
46231;DHT22;31949;51.404;-0.038;2022-11-20T05:46:20;8.10;99.90
46231;DHT22;31949;51.404;-0.038;2022-11-20T05:48:54;8.10;99.90
46231;DHT22;31949;51.404;-0.038;2022-11-20T05:51:22;8.10;99.90
46231;DHT22;31949;51.404;-0.038;2022-11-20T05:53:49;8.10;99.90
46231;DHT22;31949;51.404;-0.038;2022-11-20T05:56:18;8.10;99.90
46231;DHT22;31949;51.404;-0.038;2022-11-20T05:58:47;8.10;99.90
46231;DHT22;31949;51.404;-0.038;2022-11-20T06:01:18;8.10;99.90
46231;DHT22;31949;51.404;-0.038;2022-11-20T06:03:46;8.10;99.90
46231;DHT22;31949;51.404;-0.038;2022-11-20T06:06:15;8.10;99.90
46231;DHT22;31949;51.404;-0.038;2022-11-20T06:08:44;8.20;99.90
46231;DHT22;31949;51.404;-0.038;2022-11-20T06:11:12;8.20;99.90
46231;DHT22;31949;51.404;-0.038;2022-11-20T06:13:40;8.20;99.90
46231;DHT22;31949;51.404;-0.038;2022-11-20T06:16:09;8.20;99.90
46231;DHT22;31949;51.404;-0.038;2022-11-20T06:18:37;8.20;99.90
46231;DHT22;31949;51.404;-0.038;2022-11-20T06:21:10;8.20;99.90
46231;DHT22;31949;51.404;-0.038;2022-11-20T06:23:38;8.30;99.90
46231;DHT22;31949;51.404;-0.038;2022-11-20T06:26:11;8.30;99.90
46231;DHT22;31949;51.404;-0.038;2022-11-20T06:28:38;8.30;99.90
46231;DHT22;31949;51.404;-0.038;2022-11-20T06:31:07;8.40;99.90
46231;DHT22;31949;51.404;-0.038;2022-11-20T06:33:34;8.30;99.90
46231;DHT22;31949;51.404;-0.038;2022-11-20T06:36:02;8.40;99.90
46231;DHT22;31949;51.404;-0.038;2022-11-20T06:38:36;8.30;99.90
46231;DHT22;31949;51.404;-0.038;2022-11-20T06:41:08;8.40;99.90
46231;DHT22;31949;51.404;-0.038;2022-11-20T06:43:37;8.40;99.90
46231;DHT22;31949;51.404;-0.038;2022-11-20T06:46:04;8.40;99.90
46231;DHT22;31949;51.404;-0.038;2022-11-20T06:48:31;8.50;99.90
46231;DHT22;31949;51.404;-0.038;2022-11-20T06:50:59;8.50;99.90
46231;DHT22;31949;51.404;-0.038;2022-11-20T06:53:26;8.50;99.90
46231;DHT22;31949;51.404;-0.038;2022-11-20T06:55:56;8.50;99.90
46231;DHT22;31949;51.404;-0.038;2022-11-20T06:58:25;8.60;99.90
46231;DHT22;31949;51.404;-0.038;2022-11-20T07:00:53;8.60;99.90
46231;DHT22;31949;51.404;-0.038;2022-11-20T07:03:20;8.60;99.90
46231;DHT22;31949;51.404;-0.038;2022-11-20T07:05:47;8.60;99.90
46231;DHT22;31949;51.404;-0.038;2022-11-20T07:08:14;8.70;99.90
46231;DHT22;31949;51.404;-0.038;2022-11-20T07:10:41;8.70;99.90
46231;DHT22;31949;51.404;-0.038;2022-11-20T07:13:08;8.70;99.90
46231;DHT22;31949;51.404;-0.038;2022-11-20T07:15:35;8.70;99.90
46231;DHT22;31949;51.404;-0.038;2022-11-20T07:18:02;8.70;99.90
46231;DHT22;31949;51.404;-0.038;2022-11-20T07:20:30;8.70;99.90
46231;DHT22;31949;51.404;-0.038;2022-11-20T07:22:57;8.80;99.90
46231;DHT22;31949;51.404;-0.038;2022-11-20T07:25:25;8.80;99.90
46231;DHT22;31949;51.404;-0.038;2022-11-20T07:27:59;8.80;99.90
46231;DHT22;31949;51.404;-0.038;2022-11-20T07:30:28;8.90;99.90
46231;DHT22;31949;51.404;-0.038;2022-11-20T07:32:55;8.90;99.90
46231;DHT22;31949;51.404;-0.038;2022-11-20T07:35:26;9.00;99.90
46231;DHT22;31949;51.404;-0.038;2022-11-20T07:37:53;9.20;99.90
46231;DHT22;31949;51.404;-0.038;2022-11-20T07:40:20;9.30;99.90
46231;DHT22;31949;51.404;-0.038;2022-11-20T07:42:52;9.10;99.90
46231;DHT22;31949;51.404;-0.038;2022-11-20T07:45:21;9.00;99.90
46231;DHT22;31949;51.404;-0.038;2022-11-20T07:47:49;9.00;99.90
46231;DHT22;31949;51.404;-0.038;2022-11-20T07:50:17;8.90;99.90
46231;DHT22;31949;51.404;-0.038;2022-11-20T07:52:44;8.90;99.90
46231;DHT22;31949;51.404;-0.038;2022-11-20T07:55:12;8.80;99.90
46231;DHT22;31949;51.404;-0.038;2022-11-20T07:57:39;8.80;99.90
46231;DHT22;31949;51.404;-0.038;2022-11-20T08:00:08;8.80;99.90
46231;DHT22;31949;51.404;-0.038;2022-11-20T08:02:41;8.80;99.90
46231;DHT22;31949;51.404;-0.038;2022-11-20T08:05:09;8.80;99.90
46231;DHT22;31949;51.404;-0.038;2022-11-20T08:07:41;8.80;99.90
46231;DHT22;31949;51.404;-0.038;2022-11-20T08:10:12;8.80;99.90
46231;DHT22;31949;51.404;-0.038;2022-11-20T08:12:47;8.80;99.90
46231;DHT22;31949;51.404;-0.038;2022-11-20T08:15:34;8.80;99.90
46231;DHT22;31949;51.404;-0.038;2022-11-20T08:18:11;8.80;99.90
46231;DHT22;31949;51.404;-0.038;2022-11-20T08:20:57;8.80;99.90
46231;DHT22;31949;51.404;-0.038;2022-11-20T08:23:24;8.80;99.90
46231;DHT22;31949;51.404;-0.038;2022-11-20T08:25:51;8.80;99.90
46231;DHT22;31949;51.404;-0.038;2022-11-20T08:28:18;8.80;99.90
46231;DHT22;31949;51.404;-0.038;2022-11-20T08:30:49;8.80;99.90
46231;DHT22;31949;51.404;-0.038;2022-11-20T08:33:18;8.80;99.90
46231;DHT22;31949;51.404;-0.038;2022-11-20T08:35:45;8.80;99.90
46231;DHT22;31949;51.404;-0.038;2022-11-20T08:38:12;8.90;99.90
46231;DHT22;31949;51.404;-0.038;2022-11-20T08:40:40;8.90;99.90
46231;DHT22;31949;51.404;-0.038;2022-11-20T08:43:07;8.90;99.90
46231;DHT22;31949;51.404;-0.038;2022-11-20T08:45:34;8.90;99.90
46231;DHT22;31949;51.404;-0.038;2022-11-20T08:48:02;8.90;99.90
46231;DHT22;31949;51.404;-0.038;2022-11-20T08:50:31;8.90;99.90
46231;DHT22;31949;51.404;-0.038;2022-11-20T08:53:05;8.90;99.90
46231;DHT22;31949;51.404;-0.038;2022-11-20T08:55:33;8.90;99.90
46231;DHT22;31949;51.404;-0.038;2022-11-20T08:58:08;8.90;99.90
46231;DHT22;31949;51.404;-0.038;2022-11-20T09:00:35;9.00;99.90
46231;DHT22;31949;51.404;-0.038;2022-11-20T09:03:03;9.00;99.90
46231;DHT22;31949;51.404;-0.038;2022-11-20T09:05:31;9.00;99.90
46231;DHT22;31949;51.404;-0.038;2022-11-20T09:07:59;8.90;99.90
46231;DHT22;31949;51.404;-0.038;2022-11-20T09:10:27;8.90;99.90
46231;DHT22;31949;51.404;-0.038;2022-11-20T09:12:55;8.90;99.90
46231;DHT22;31949;51.404;-0.038;2022-11-20T09:15:24;9.00;99.90
46231;DHT22;31949;51.404;-0.038;2022-11-20T09:17:56;8.90;99.90
46231;DHT22;31949;51.404;-0.038;2022-11-20T09:20:23;9.00;99.90
46231;DHT22;31949;51.404;-0.038;2022-11-20T09:22:51;9.00;99.90
46231;DHT22;31949;51.404;-0.038;2022-11-20T09:25:18;9.00;99.90
46231;DHT22;31949;51.404;-0.038;2022-11-20T09:27:46;9.10;99.90
46231;DHT22;31949;51.404;-0.038;2022-11-20T09:30:16;9.10;99.90
46231;DHT22;31949;51.404;-0.038;2022-11-20T09:32:43;9.00;99.90
46231;DHT22;31949;51.404;-0.038;2022-11-20T09:35:10;9.10;99.90
46231;DHT22;31949;51.404;-0.038;2022-11-20T09:37:40;9.00;99.90
46231;DHT22;31949;51.404;-0.038;2022-11-20T09:51:21;8.90;99.90
46231;DHT22;31949;51.404;-0.038;2022-11-20T09:56:40;8.90;99.90
46231;DHT22;31949;51.404;-0.038;2022-11-20T09:59:45;9.00;99.90
46231;DHT22;31949;51.404;-0.038;2022-11-20T10:05:18;8.90;99.90
46231;DHT22;31949;51.404;-0.038;2022-11-20T10:16:40;8.90;99.90
46231;DHT22;31949;51.404;-0.038;2022-11-20T10:25:16;9.10;99.90
46231;DHT22;31949;51.404;-0.038;2022-11-20T10:28:19;9.20;99.90
46231;DHT22;31949;51.404;-0.038;2022-11-20T10:31:06;9.20;99.90
46231;DHT22;31949;51.404;-0.038;2022-11-20T10:33:41;9.30;99.90
46231;DHT22;31949;51.404;-0.038;2022-11-20T10:36:34;9.30;99.90
46231;DHT22;31949;51.404;-0.038;2022-11-20T10:39:16;9.40;99.90
46231;DHT22;31949;51.404;-0.038;2022-11-20T10:41:48;9.40;99.90
46231;DHT22;31949;51.404;-0.038;2022-11-20T10:44:21;9.40;99.90
46231;DHT22;31949;51.404;-0.038;2022-11-20T10:47:14;9.50;99.90
46231;DHT22;31949;51.404;-0.038;2022-11-20T10:49:46;9.60;99.90
46231;DHT22;31949;51.404;-0.038;2022-11-20T10:55:44;9.70;99.90
46231;DHT22;31949;51.404;-0.038;2022-11-20T10:58:17;9.80;99.90
46231;DHT22;31949;51.404;-0.038;2022-11-20T11:00:46;9.80;99.90
46231;DHT22;31949;51.404;-0.038;2022-11-20T11:03:29;9.90;99.90
46231;DHT22;31949;51.404;-0.038;2022-11-20T11:06:07;9.90;99.90
46231;DHT22;31949;51.404;-0.038;2022-11-20T11:08:38;10.00;99.90
46231;DHT22;31949;51.404;-0.038;2022-11-20T11:11:20;10.00;99.90
46231;DHT22;31949;51.404;-0.038;2022-11-20T11:13:48;10.00;99.90
46231;DHT22;31949;51.404;-0.038;2022-11-20T11:16:26;10.00;99.90
46231;DHT22;31949;51.404;-0.038;2022-11-20T11:19:07;10.00;99.90
46231;DHT22;31949;51.404;-0.038;2022-11-20T11:21:38;10.10;99.90
46231;DHT22;31949;51.404;-0.038;2022-11-20T11:24:29;10.10;99.90
46231;DHT22;31949;51.404;-0.038;2022-11-20T11:27:14;10.10;99.90
46231;DHT22;31949;51.404;-0.038;2022-11-20T11:29:45;10.10;99.90
46231;DHT22;31949;51.404;-0.038;2022-11-20T11:32:19;10.20;99.90
46231;DHT22;31949;51.404;-0.038;2022-11-20T11:35:05;10.20;99.90
46231;DHT22;31949;51.404;-0.038;2022-11-20T11:37:35;10.30;99.90
46231;DHT22;31949;51.404;-0.038;2022-11-20T11:40:08;10.30;99.90
46231;DHT22;31949;51.404;-0.038;2022-11-20T11:42:58;10.40;99.90
46231;DHT22;31949;51.404;-0.038;2022-11-20T11:45:27;10.50;99.90
46231;DHT22;31949;51.404;-0.038;2022-11-20T11:48:00;10.50;99.90
46231;DHT22;31949;51.404;-0.038;2022-11-20T11:50:29;10.60;99.90
46231;DHT22;31949;51.404;-0.038;2022-11-20T11:53:15;10.60;99.90
46231;DHT22;31949;51.404;-0.038;2022-11-20T11:55:51;10.60;99.90
46231;DHT22;31949;51.404;-0.038;2022-11-20T12:06:44;10.80;99.90
46231;DHT22;31949;51.404;-0.038;2022-11-20T12:09:12;10.90;99.90
46231;DHT22;31949;51.404;-0.038;2022-11-20T12:11:56;10.90;99.90
46231;DHT22;31949;51.404;-0.038;2022-11-20T12:14:40;10.90;99.90
46231;DHT22;31949;51.404;-0.038;2022-11-20T12:17:11;11.00;99.90
46231;DHT22;31949;51.404;-0.038;2022-11-20T12:19:39;11.00;99.90
46231;DHT22;31949;51.404;-0.038;2022-11-20T12:25:29;11.00;99.90
46231;DHT22;31949;51.404;-0.038;2022-11-20T12:30:59;11.00;99.90
46231;DHT22;31949;51.404;-0.038;2022-11-20T12:33:52;11.00;99.90
46231;DHT22;31949;51.404;-0.038;2022-11-20T12:59:21;11.20;99.90
46231;DHT22;31949;51.404;-0.038;2022-11-20T13:02:40;11.20;99.90
46231;DHT22;31949;51.404;-0.038;2022-11-20T13:07:40;11.30;99.90
46231;DHT22;31949;51.404;-0.038;2022-11-20T13:10:42;11.30;99.90
46231;DHT22;31949;51.404;-0.038;2022-11-20T13:16:06;11.20;99.90
46231;DHT22;31949;51.404;-0.038;2022-11-20T13:18:39;11.20;99.90
46231;DHT22;31949;51.404;-0.038;2022-11-20T13:21:16;11.20;99.90
46231;DHT22;31949;51.404;-0.038;2022-11-20T13:23:44;11.30;99.90
46231;DHT22;31949;51.404;-0.038;2022-11-20T13:26:20;11.20;99.90
46231;DHT22;31949;51.404;-0.038;2022-11-20T13:29:09;11.20;99.90
46231;DHT22;31949;51.404;-0.038;2022-11-20T13:31:42;11.20;99.90
46231;DHT22;31949;51.404;-0.038;2022-11-20T13:34:12;11.30;99.90
46231;DHT22;31949;51.404;-0.038;2022-11-20T13:36:50;11.20;99.90
46231;DHT22;31949;51.404;-0.038;2022-11-20T13:42:01;11.20;99.90
46231;DHT22;31949;51.404;-0.038;2022-11-20T13:44:38;11.10;99.90
46231;DHT22;31949;51.404;-0.038;2022-11-20T13:47:26;11.10;99.90
46231;DHT22;31949;51.404;-0.038;2022-11-20T13:49:55;11.00;99.90
46231;DHT22;31949;51.404;-0.038;2022-11-20T13:52:55;11.10;99.90
46231;DHT22;31949;51.404;-0.038;2022-11-20T14:01:16;11.00;99.90
46231;DHT22;31949;51.404;-0.038;2022-11-20T14:03:47;10.90;99.90
46231;DHT22;31949;51.404;-0.038;2022-11-20T14:06:44;10.90;99.90
46231;DHT22;31949;51.404;-0.038;2022-11-20T14:09:29;10.80;99.90
46231;DHT22;31949;51.404;-0.038;2022-11-20T14:11:57;10.80;99.90
46231;DHT22;31949;51.404;-0.038;2022-11-20T14:14:29;10.80;99.90
46231;DHT22;31949;51.404;-0.038;2022-11-20T14:17:22;10.80;99.90
46231;DHT22;31949;51.404;-0.038;2022-11-20T14:19:51;10.80;99.90
46231;DHT22;31949;51.404;-0.038;2022-11-20T14:22:24;10.70;99.90
46231;DHT22;31949;51.404;-0.038;2022-11-20T14:25:24;10.80;99.90
46231;DHT22;31949;51.404;-0.038;2022-11-20T14:27:58;10.70;99.90
46231;DHT22;31949;51.404;-0.038;2022-11-20T14:30:29;10.70;99.90
46231;DHT22;31949;51.404;-0.038;2022-11-20T14:33:04;10.70;99.90
46231;DHT22;31949;51.404;-0.038;2022-11-20T14:35:36;10.80;99.90
46231;DHT22;31949;51.404;-0.038;2022-11-20T14:38:12;10.80;99.90
46231;DHT22;31949;51.404;-0.038;2022-11-20T14:40:40;10.80;99.90
46231;DHT22;31949;51.404;-0.038;2022-11-20T14:43:22;10.80;99.90
46231;DHT22;31949;51.404;-0.038;2022-11-20T14:46:04;10.90;99.90
46231;DHT22;31949;51.404;-0.038;2022-11-20T14:48:45;10.90;99.90
46231;DHT22;31949;51.404;-0.038;2022-11-20T14:54:12;10.90;99.90
46231;DHT22;31949;51.404;-0.038;2022-11-20T14:56:41;10.90;99.90
46231;DHT22;31949;51.404;-0.038;2022-11-20T14:59:09;10.90;99.90
46231;DHT22;31949;51.404;-0.038;2022-11-20T15:01:36;10.90;99.90
46231;DHT22;31949;51.404;-0.038;2022-11-20T15:04:10;10.90;99.90
46231;DHT22;31949;51.404;-0.038;2022-11-20T15:06:49;10.90;99.90
46231;DHT22;31949;51.404;-0.038;2022-11-20T15:09:17;10.90;99.90
46231;DHT22;31949;51.404;-0.038;2022-11-20T15:11:59;10.80;99.90
46231;DHT22;31949;51.404;-0.038;2022-11-20T15:14:28;10.80;99.90
46231;DHT22;31949;51.404;-0.038;2022-11-20T15:16:56;10.80;99.90
46231;DHT22;31949;51.404;-0.038;2022-11-20T15:19:25;10.80;99.90
46231;DHT22;31949;51.404;-0.038;2022-11-20T15:21:53;10.70;99.90
46231;DHT22;31949;51.404;-0.038;2022-11-20T15:24:20;10.70;99.90
46231;DHT22;31949;51.404;-0.038;2022-11-20T15:26:48;10.60;99.90
46231;DHT22;31949;51.404;-0.038;2022-11-20T15:29:16;10.60;99.90
46231;DHT22;31949;51.404;-0.038;2022-11-20T15:31:47;10.60;99.90
46231;DHT22;31949;51.404;-0.038;2022-11-20T15:34:15;10.50;99.90
46231;DHT22;31949;51.404;-0.038;2022-11-20T15:36:43;10.50;99.90
46231;DHT22;31949;51.404;-0.038;2022-11-20T15:39:10;10.50;99.90
46231;DHT22;31949;51.404;-0.038;2022-11-20T15:41:38;10.50;99.90
46231;DHT22;31949;51.404;-0.038;2022-11-20T15:44:06;10.40;99.90
46231;DHT22;31949;51.404;-0.038;2022-11-20T15:46:36;10.40;99.90
46231;DHT22;31949;51.404;-0.038;2022-11-20T15:49:08;10.40;99.90
46231;DHT22;31949;51.404;-0.038;2022-11-20T15:51:41;10.40;99.90
46231;DHT22;31949;51.404;-0.038;2022-11-20T15:54:11;10.40;99.90
46231;DHT22;31949;51.404;-0.038;2022-11-20T15:56:38;10.40;99.90
46231;DHT22;31949;51.404;-0.038;2022-11-20T15:59:06;10.40;99.90
46231;DHT22;31949;51.404;-0.038;2022-11-20T16:01:33;10.40;99.90
46231;DHT22;31949;51.404;-0.038;2022-11-20T16:04:01;10.40;99.90
46231;DHT22;31949;51.404;-0.038;2022-11-20T16:06:28;10.40;99.90
46231;DHT22;31949;51.404;-0.038;2022-11-20T16:08:58;10.40;99.90
46231;DHT22;31949;51.404;-0.038;2022-11-20T16:11:25;10.40;99.90
46231;DHT22;31949;51.404;-0.038;2022-11-20T16:13:52;10.30;99.90
46231;DHT22;31949;51.404;-0.038;2022-11-20T16:16:38;10.30;99.90
46231;DHT22;31949;51.404;-0.038;2022-11-20T16:19:13;10.30;99.90
46231;DHT22;31949;51.404;-0.038;2022-11-20T16:21:41;10.20;99.90
46231;DHT22;31949;51.404;-0.038;2022-11-20T16:24:11;10.20;99.90
46231;DHT22;31949;51.404;-0.038;2022-11-20T16:26:40;10.20;99.90
46231;DHT22;31949;51.404;-0.038;2022-11-20T16:29:08;10.20;99.90
46231;DHT22;31949;51.404;-0.038;2022-11-20T16:31:36;10.10;99.90
46231;DHT22;31949;51.404;-0.038;2022-11-20T16:34:06;10.10;99.90
46231;DHT22;31949;51.404;-0.038;2022-11-20T16:36:49;10.10;99.90
46231;DHT22;31949;51.404;-0.038;2022-11-20T16:39:16;10.10;99.90
46231;DHT22;31949;51.404;-0.038;2022-11-20T16:41:49;10.20;99.90
46231;DHT22;31949;51.404;-0.038;2022-11-20T16:44:16;10.10;99.90
46231;DHT22;31949;51.404;-0.038;2022-11-20T16:46:43;10.10;99.90
46231;DHT22;31949;51.404;-0.038;2022-11-20T16:49:14;10.10;99.90
46231;DHT22;31949;51.404;-0.038;2022-11-20T16:51:41;10.10;99.90
46231;DHT22;31949;51.404;-0.038;2022-11-20T16:54:09;10.10;99.90
46231;DHT22;31949;51.404;-0.038;2022-11-20T16:56:36;10.10;99.90
46231;DHT22;31949;51.404;-0.038;2022-11-20T16:59:04;10.10;99.90
46231;DHT22;31949;51.404;-0.038;2022-11-20T17:01:33;10.00;99.90
46231;DHT22;31949;51.404;-0.038;2022-11-20T17:04:05;10.00;99.90
46231;DHT22;31949;51.404;-0.038;2022-11-20T17:06:35;9.90;99.90
46231;DHT22;31949;51.404;-0.038;2022-11-20T17:09:03;9.90;99.90
46231;DHT22;31949;51.404;-0.038;2022-11-20T17:11:30;9.80;99.90
46231;DHT22;31949;51.404;-0.038;2022-11-20T17:13:59;9.80;99.90
46231;DHT22;31949;51.404;-0.038;2022-11-20T17:16:27;9.80;99.90
46231;DHT22;31949;51.404;-0.038;2022-11-20T17:18:56;9.80;99.90
46231;DHT22;31949;51.404;-0.038;2022-11-20T17:21:29;9.90;99.90